sensor_id;sensor_type;location;lat;lon;timestamp;P1;durP1;ratioP1;P2;durP2;ratioP2
75616;SDS011;64200;55.426;37.758;2024-03-08T00:04:34;9.02;;;4.38;;
75616;SDS011;64200;55.426;37.758;2024-03-08T00:09:35;9.07;;;4.33;;
75616;SDS011;64200;55.426;37.758;2024-03-08T00:14:36;9.20;;;3.38;;
75616;SDS011;64200;55.426;37.758;2024-03-08T00:19:37;9.93;;;3.97;;
75616;SDS011;64200;55.426;37.758;2024-03-08T00:24:39;9.00;;;3.92;;
75616;SDS011;64200;55.426;37.758;2024-03-08T00:29:40;7.40;;;3.22;;
75616;SDS011;64200;55.426;37.758;2024-03-08T00:34:40;9.23;;;3.97;;
75616;SDS011;64200;55.426;37.758;2024-03-08T00:39:41;7.90;;;3.67;;
75616;SDS011;64200;55.426;37.758;2024-03-08T00:44:42;5.80;;;2.92;;
75616;SDS011;64200;55.426;37.758;2024-03-08T00:49:42;5.50;;;3.07;;
75616;SDS011;64200;55.426;37.758;2024-03-08T00:54:43;11.25;;;3.83;;
75616;SDS011;64200;55.426;37.758;2024-03-08T00:59:43;6.67;;;3.30;;
75616;SDS011;64200;55.426;37.758;2024-03-08T01:04:45;5.82;;;3.28;;
75616;SDS011;64200;55.426;37.758;2024-03-08T01:09:47;8.95;;;3.83;;
75616;SDS011;64200;55.426;37.758;2024-03-08T01:14:47;6.10;;;2.97;;
75616;SDS011;64200;55.426;37.758;2024-03-08T01:24:48;8.50;;;3.50;;
75616;SDS011;64200;55.426;37.758;2024-03-08T01:29:49;7.30;;;3.00;;
75616;SDS011;64200;55.426;37.758;2024-03-08T01:34:49;7.87;;;3.20;;
75616;SDS011;64200;55.426;37.758;2024-03-08T01:39:49;6.73;;;2.70;;
75616;SDS011;64200;55.426;37.758;2024-03-08T01:44:50;5.63;;;2.57;;
75616;SDS011;64200;55.426;37.758;2024-03-08T01:49:51;6.28;;;3.20;;
75616;SDS011;64200;55.426;37.758;2024-03-08T01:54:52;5.38;;;2.70;;
75616;SDS011;64200;55.426;37.758;2024-03-08T01:59:53;8.32;;;3.15;;
75616;SDS011;64200;55.426;37.758;2024-03-08T02:04:55;6.25;;;3.20;;
75616;SDS011;64200;55.426;37.758;2024-03-08T02:09:56;7.63;;;3.00;;
75616;SDS011;64200;55.426;37.758;2024-03-08T02:14:56;8.03;;;2.40;;
75616;SDS011;64200;55.426;37.758;2024-03-08T02:19:57;7.43;;;2.93;;
75616;SDS011;64200;55.426;37.758;2024-03-08T02:25:00;4.10;;;2.57;;
75616;SDS011;64200;55.426;37.758;2024-03-08T02:30:03;4.15;;;2.20;;
75616;SDS011;64200;55.426;37.758;2024-03-08T02:35:05;5.15;;;2.30;;
75616;SDS011;64200;55.426;37.758;2024-03-08T02:40:06;4.28;;;2.42;;
75616;SDS011;64200;55.426;37.758;2024-03-08T02:45:07;3.95;;;2.20;;
75616;SDS011;64200;55.426;37.758;2024-03-08T02:50:10;3.92;;;1.90;;
75616;SDS011;64200;55.426;37.758;2024-03-08T02:55:11;3.13;;;2.15;;
75616;SDS011;64200;55.426;37.758;2024-03-08T03:00:17;3.45;;;1.75;;
75616;SDS011;64200;55.426;37.758;2024-03-08T03:05:19;4.10;;;2.75;;
75616;SDS011;64200;55.426;37.758;2024-03-08T03:10:20;4.88;;;2.03;;
75616;SDS011;64200;55.426;37.758;2024-03-08T03:15:21;3.25;;;1.83;;
75616;SDS011;64200;55.426;37.758;2024-03-08T03:20:22;4.18;;;1.80;;
75616;SDS011;64200;55.426;37.758;2024-03-08T03:25:26;5.70;;;2.92;;
75616;SDS011;64200;55.426;37.758;2024-03-08T03:30:33;5.65;;;2.60;;
75616;SDS011;64200;55.426;37.758;2024-03-08T03:35:33;5.30;;;2.22;;
75616;SDS011;64200;55.426;37.758;2024-03-08T03:40:34;6.38;;;2.95;;
75616;SDS011;64200;55.426;37.758;2024-03-08T03:50:35;4.63;;;1.90;;
75616;SDS011;64200;55.426;37.758;2024-03-08T03:55:36;5.18;;;2.17;;
75616;SDS011;64200;55.426;37.758;2024-03-08T04:00:38;4.50;;;1.90;;
75616;SDS011;64200;55.426;37.758;2024-03-08T04:05:39;4.53;;;2.58;;
75616;SDS011;64200;55.426;37.758;2024-03-08T04:15:42;8.65;;;3.72;;
75616;SDS011;64200;55.426;37.758;2024-03-08T04:20:44;6.05;;;2.72;;
75616;SDS011;64200;55.426;37.758;2024-03-08T04:25:45;5.47;;;2.00;;
75616;SDS011;64200;55.426;37.758;2024-03-08T04:30:46;3.80;;;2.38;;
75616;SDS011;64200;55.426;37.758;2024-03-08T04:40:48;5.13;;;2.45;;
75616;SDS011;64200;55.426;37.758;2024-03-08T04:45:49;5.70;;;2.50;;
75616;SDS011;64200;55.426;37.758;2024-03-08T04:50:49;4.47;;;2.07;;
75616;SDS011;64200;55.426;37.758;2024-03-08T04:55:51;3.17;;;1.85;;
75616;SDS011;64200;55.426;37.758;2024-03-08T05:00:52;7.67;;;2.33;;
75616;SDS011;64200;55.426;37.758;2024-03-08T05:05:52;7.67;;;2.67;;
75616;SDS011;64200;55.426;37.758;2024-03-08T05:10:53;6.87;;;2.60;;
75616;SDS011;64200;55.426;37.758;2024-03-08T05:15:54;5.53;;;2.78;;
75616;SDS011;64200;55.426;37.758;2024-03-08T05:20:58;6.10;;;2.95;;
75616;SDS011;64200;55.426;37.758;2024-03-08T05:25:59;4.75;;;2.38;;
75616;SDS011;64200;55.426;37.758;2024-03-08T05:30:59;4.93;;;2.50;;
75616;SDS011;64200;55.426;37.758;2024-03-08T05:36:00;6.73;;;3.00;;
75616;SDS011;64200;55.426;37.758;2024-03-08T05:41:02;6.38;;;3.15;;
75616;SDS011;64200;55.426;37.758;2024-03-08T05:46:03;6.65;;;2.90;;
75616;SDS011;64200;55.426;37.758;2024-03-08T05:51:04;4.65;;;3.00;;
75616;SDS011;64200;55.426;37.758;2024-03-08T05:56:05;5.85;;;2.83;;
75616;SDS011;64200;55.426;37.758;2024-03-08T06:01:06;2.88;;;2.08;;
75616;SDS011;64200;55.426;37.758;2024-03-08T06:06:08;4.43;;;2.35;;
75616;SDS011;64200;55.426;37.758;2024-03-08T06:11:08;6.70;;;3.65;;
75616;SDS011;64200;55.426;37.758;2024-03-08T06:16:09;7.57;;;3.33;;
75616;SDS011;64200;55.426;37.758;2024-03-08T06:21:10;7.13;;;3.40;;
75616;SDS011;64200;55.426;37.758;2024-03-08T06:26:12;8.63;;;2.80;;
75616;SDS011;64200;55.426;37.758;2024-03-08T06:31:12;7.70;;;3.63;;
75616;SDS011;64200;55.426;37.758;2024-03-08T06:36:17;7.00;;;3.63;;
75616;SDS011;64200;55.426;37.758;2024-03-08T06:41:19;9.32;;;4.35;;
75616;SDS011;64200;55.426;37.758;2024-03-08T06:46:22;7.78;;;3.35;;
75616;SDS011;64200;55.426;37.758;2024-03-08T06:51:22;7.83;;;4.17;;
75616;SDS011;64200;55.426;37.758;2024-03-08T06:56:24;10.07;;;3.72;;
75616;SDS011;64200;55.426;37.758;2024-03-08T07:01:25;7.78;;;3.50;;
75616;SDS011;64200;55.426;37.758;2024-03-08T07:06:26;7.20;;;3.13;;
75616;SDS011;64200;55.426;37.758;2024-03-08T07:11:26;8.80;;;3.97;;
75616;SDS011;64200;55.426;37.758;2024-03-08T07:16:27;8.20;;;3.67;;
75616;SDS011;64200;55.426;37.758;2024-03-08T07:21:28;11.68;;;4.28;;
75616;SDS011;64200;55.426;37.758;2024-03-08T07:26:29;10.90;;;4.68;;
75616;SDS011;64200;55.426;37.758;2024-03-08T07:31:30;8.05;;;3.55;;
75616;SDS011;64200;55.426;37.758;2024-03-08T07:36:55;5.88;;;3.38;;
75616;SDS011;64200;55.426;37.758;2024-03-08T07:41:56;9.15;;;4.60;;
75616;SDS011;64200;55.426;37.758;2024-03-08T07:46:57;8.53;;;3.73;;
75616;SDS011;64200;55.426;37.758;2024-03-08T07:51:57;12.73;;;5.38;;
75616;SDS011;64200;55.426;37.758;2024-03-08T07:56:59;7.22;;;3.55;;
75616;SDS011;64200;55.426;37.758;2024-03-08T08:01:59;7.17;;;4.17;;
75616;SDS011;64200;55.426;37.758;2024-03-08T08:07:00;10.98;;;4.90;;
75616;SDS011;64200;55.426;37.758;2024-03-08T08:12:01;13.55;;;4.90;;
75616;SDS011;64200;55.426;37.758;2024-03-08T08:17:03;7.95;;;3.47;;
75616;SDS011;64200;55.426;37.758;2024-03-08T08:22:04;6.72;;;3.63;;
75616;SDS011;64200;55.426;37.758;2024-03-08T08:27:04;11.80;;;5.27;;
75616;SDS011;64200;55.426;37.758;2024-03-08T08:32:05;7.78;;;4.20;;
75616;SDS011;64200;55.426;37.758;2024-03-08T08:37:06;7.55;;;4.07;;
75616;SDS011;64200;55.426;37.758;2024-03-08T08:42:08;12.02;;;4.93;;
75616;SDS011;64200;55.426;37.758;2024-03-08T08:47:09;14.27;;;5.80;;
75616;SDS011;64200;55.426;37.758;2024-03-08T08:52:09;8.83;;;4.43;;
75616;SDS011;64200;55.426;37.758;2024-03-08T08:57:10;8.90;;;4.97;;
75616;SDS011;64200;55.426;37.758;2024-03-08T09:02:10;9.82;;;4.70;;
75616;SDS011;64200;55.426;37.758;2024-03-08T09:07:11;8.97;;;5.63;;
75616;SDS011;64200;55.426;37.758;2024-03-08T09:12:13;10.48;;;5.20;;
75616;SDS011;64200;55.426;37.758;2024-03-08T09:17:14;9.05;;;4.57;;
75616;SDS011;64200;55.426;37.758;2024-03-08T09:22:20;8.70;;;5.25;;
75616;SDS011;64200;55.426;37.758;2024-03-08T09:27:20;11.13;;;5.32;;
75616;SDS011;64200;55.426;37.758;2024-03-08T09:32:21;7.25;;;4.35;;
75616;SDS011;64200;55.426;37.758;2024-03-08T09:37:22;8.13;;;5.07;;
75616;SDS011;64200;55.426;37.758;2024-03-08T09:42:23;9.70;;;4.67;;
75616;SDS011;64200;55.426;37.758;2024-03-08T09:47:24;9.50;;;4.50;;
75616;SDS011;64200;55.426;37.758;2024-03-08T09:52:29;7.05;;;4.63;;
75616;SDS011;64200;55.426;37.758;2024-03-08T09:57:32;9.57;;;5.25;;
75616;SDS011;64200;55.426;37.758;2024-03-08T10:02:35;10.80;;;5.13;;
75616;SDS011;64200;55.426;37.758;2024-03-08T10:07:35;11.70;;;5.25;;
75616;SDS011;64200;55.426;37.758;2024-03-08T10:12:36;9.43;;;4.63;;
75616;SDS011;64200;55.426;37.758;2024-03-08T10:17:36;8.90;;;5.05;;
75616;SDS011;64200;55.426;37.758;2024-03-08T10:22:37;10.15;;;4.88;;
75616;SDS011;64200;55.426;37.758;2024-03-08T10:27:41;7.00;;;3.95;;
75616;SDS011;64200;55.426;37.758;2024-03-08T10:32:41;8.98;;;5.07;;
75616;SDS011;64200;55.426;37.758;2024-03-08T10:42:53;9.43;;;5.07;;
75616;SDS011;64200;55.426;37.758;2024-03-08T10:47:57;9.23;;;5.32;;
75616;SDS011;64200;55.426;37.758;2024-03-08T10:53:11;11.23;;;6.15;;
75616;SDS011;64200;55.426;37.758;2024-03-08T10:58:14;11.00;;;5.22;;
75616;SDS011;64200;55.426;37.758;2024-03-08T11:08:42;11.70;;;6.05;;
75616;SDS011;64200;55.426;37.758;2024-03-08T11:13:44;7.90;;;4.75;;
75616;SDS011;64200;55.426;37.758;2024-03-08T11:18:45;10.53;;;5.20;;
75616;SDS011;64200;55.426;37.758;2024-03-08T11:34:35;12.80;;;6.22;;
75616;SDS011;64200;55.426;37.758;2024-03-08T11:39:36;12.57;;;6.95;;
75616;SDS011;64200;55.426;37.758;2024-03-08T11:44:37;12.18;;;6.10;;
75616;SDS011;64200;55.426;37.758;2024-03-08T11:49:38;13.52;;;6.10;;
75616;SDS011;64200;55.426;37.758;2024-03-08T11:54:53;13.93;;;6.72;;
75616;SDS011;64200;55.426;37.758;2024-03-08T12:04:58;16.48;;;6.88;;
75616;SDS011;64200;55.426;37.758;2024-03-08T12:10:15;12.48;;;5.70;;
75616;SDS011;64200;55.426;37.758;2024-03-08T12:15:18;13.80;;;5.90;;
75616;SDS011;64200;55.426;37.758;2024-03-08T12:20:21;13.85;;;6.70;;
75616;SDS011;64200;55.426;37.758;2024-03-08T12:25:33;9.18;;;5.22;;
75616;SDS011;64200;55.426;37.758;2024-03-08T12:30:44;9.77;;;4.93;;
75616;SDS011;64200;55.426;37.758;2024-03-08T12:35:50;8.98;;;5.07;;
75616;SDS011;64200;55.426;37.758;2024-03-08T12:40:55;12.93;;;5.03;;
75616;SDS011;64200;55.426;37.758;2024-03-08T12:45:57;8.90;;;5.20;;
75616;SDS011;64200;55.426;37.758;2024-03-08T12:50:58;9.02;;;4.90;;
75616;SDS011;64200;55.426;37.758;2024-03-08T12:55:58;11.57;;;5.80;;
75616;SDS011;64200;55.426;37.758;2024-03-08T13:00:59;8.90;;;4.15;;
75616;SDS011;64200;55.426;37.758;2024-03-08T13:06:00;11.07;;;5.45;;
75616;SDS011;64200;55.426;37.758;2024-03-08T13:11:01;9.13;;;5.50;;
75616;SDS011;64200;55.426;37.758;2024-03-08T13:16:03;6.30;;;3.75;;
75616;SDS011;64200;55.426;37.758;2024-03-08T13:21:08;7.35;;;4.18;;
75616;SDS011;64200;55.426;37.758;2024-03-08T13:26:10;8.52;;;4.57;;
75616;SDS011;64200;55.426;37.758;2024-03-08T13:31:15;7.97;;;3.67;;
75616;SDS011;64200;55.426;37.758;2024-03-08T13:36:15;6.37;;;4.47;;
75616;SDS011;64200;55.426;37.758;2024-03-08T13:41:16;8.90;;;4.63;;
75616;SDS011;64200;55.426;37.758;2024-03-08T13:46:17;10.85;;;5.05;;
75616;SDS011;64200;55.426;37.758;2024-03-08T13:51:17;11.88;;;5.05;;
75616;SDS011;64200;55.426;37.758;2024-03-08T13:56:20;11.20;;;6.22;;
75616;SDS011;64200;55.426;37.758;2024-03-08T14:01:21;5.85;;;3.50;;
75616;SDS011;64200;55.426;37.758;2024-03-08T14:06:22;8.53;;;4.10;;
75616;SDS011;64200;55.426;37.758;2024-03-08T14:11:25;8.65;;;4.90;;
75616;SDS011;64200;55.426;37.758;2024-03-08T14:16:27;9.00;;;4.68;;
75616;SDS011;64200;55.426;37.758;2024-03-08T14:21:27;7.30;;;3.92;;
75616;SDS011;64200;55.426;37.758;2024-03-08T14:26:28;7.60;;;4.90;;
75616;SDS011;64200;55.426;37.758;2024-03-08T14:31:28;8.93;;;4.20;;
75616;SDS011;64200;55.426;37.758;2024-03-08T14:36:30;12.63;;;4.28;;
75616;SDS011;64200;55.426;37.758;2024-03-08T14:41:30;9.20;;;3.70;;
75616;SDS011;64200;55.426;37.758;2024-03-08T14:46:31;9.27;;;4.13;;
75616;SDS011;64200;55.426;37.758;2024-03-08T14:51:31;8.88;;;4.20;;
75616;SDS011;64200;55.426;37.758;2024-03-08T14:56:33;16.45;;;6.25;;
75616;SDS011;64200;55.426;37.758;2024-03-08T15:01:35;10.73;;;4.57;;
75616;SDS011;64200;55.426;37.758;2024-03-08T15:06:38;6.90;;;3.70;;
75616;SDS011;64200;55.426;37.758;2024-03-08T15:11:40;8.43;;;4.28;;
75616;SDS011;64200;55.426;37.758;2024-03-08T15:16:42;7.85;;;3.65;;
75616;SDS011;64200;55.426;37.758;2024-03-08T15:21:43;9.73;;;4.22;;
75616;SDS011;64200;55.426;37.758;2024-03-08T15:26:48;7.75;;;3.97;;
75616;SDS011;64200;55.426;37.758;2024-03-08T15:31:51;8.45;;;3.40;;
75616;SDS011;64200;55.426;37.758;2024-03-08T15:36:53;5.47;;;3.47;;
75616;SDS011;64200;55.426;37.758;2024-03-08T15:41:54;8.45;;;3.78;;
75616;SDS011;64200;55.426;37.758;2024-03-08T15:46:55;6.25;;;2.38;;
75616;SDS011;64200;55.426;37.758;2024-03-08T15:51:55;7.53;;;3.80;;
75616;SDS011;64200;55.426;37.758;2024-03-08T15:56:56;7.83;;;3.67;;
75616;SDS011;64200;55.426;37.758;2024-03-08T16:01:58;6.15;;;3.63;;
75616;SDS011;64200;55.426;37.758;2024-03-08T16:06:58;7.67;;;3.27;;
75616;SDS011;64200;55.426;37.758;2024-03-08T16:12:00;6.30;;;3.63;;
75616;SDS011;64200;55.426;37.758;2024-03-08T16:17:01;7.57;;;3.47;;
75616;SDS011;64200;55.426;37.758;2024-03-08T16:22:01;8.20;;;3.90;;
75616;SDS011;64200;55.426;37.758;2024-03-08T16:27:02;9.27;;;3.88;;
75616;SDS011;64200;55.426;37.758;2024-03-08T16:32:04;8.02;;;3.67;;
75616;SDS011;64200;55.426;37.758;2024-03-08T16:37:05;7.20;;;3.28;;
75616;SDS011;64200;55.426;37.758;2024-03-08T16:42:06;7.80;;;3.50;;
75616;SDS011;64200;55.426;37.758;2024-03-08T16:47:07;7.20;;;3.42;;
75616;SDS011;64200;55.426;37.758;2024-03-08T16:52:08;5.43;;;2.90;;
75616;SDS011;64200;55.426;37.758;2024-03-08T16:57:09;9.73;;;3.38;;
75616;SDS011;64200;55.426;37.758;2024-03-08T17:02:14;7.60;;;2.90;;
75616;SDS011;64200;55.426;37.758;2024-03-08T17:07:14;8.60;;;4.30;;
75616;SDS011;64200;55.426;37.758;2024-03-08T17:12:15;9.63;;;3.55;;
75616;SDS011;64200;55.426;37.758;2024-03-08T17:17:19;7.35;;;3.50;;
75616;SDS011;64200;55.426;37.758;2024-03-08T17:22:20;6.00;;;3.53;;
75616;SDS011;64200;55.426;37.758;2024-03-08T17:27:21;8.57;;;3.50;;
75616;SDS011;64200;55.426;37.758;2024-03-08T17:32:24;7.45;;;3.55;;
75616;SDS011;64200;55.426;37.758;2024-03-08T17:37:25;7.00;;;3.10;;
75616;SDS011;64200;55.426;37.758;2024-03-08T17:42:25;7.30;;;3.87;;
75616;SDS011;64200;55.426;37.758;2024-03-08T17:47:26;9.13;;;3.27;;
75616;SDS011;64200;55.426;37.758;2024-03-08T17:52:27;6.47;;;3.00;;
75616;SDS011;64200;55.426;37.758;2024-03-08T17:57:27;8.07;;;3.37;;
75616;SDS011;64200;55.426;37.758;2024-03-08T18:02:28;6.70;;;3.17;;
75616;SDS011;64200;55.426;37.758;2024-03-08T18:07:28;7.00;;;3.92;;
75616;SDS011;64200;55.426;37.758;2024-03-08T18:12:29;8.23;;;3.90;;
75616;SDS011;64200;55.426;37.758;2024-03-08T18:17:30;8.02;;;3.92;;
75616;SDS011;64200;55.426;37.758;2024-03-08T18:22:31;8.65;;;3.55;;
75616;SDS011;64200;55.426;37.758;2024-03-08T18:27:32;7.82;;;3.40;;
75616;SDS011;64200;55.426;37.758;2024-03-08T18:32:33;8.47;;;3.87;;
75616;SDS011;64200;55.426;37.758;2024-03-08T18:37:34;7.78;;;3.50;;
75616;SDS011;64200;55.426;37.758;2024-03-08T18:42:34;7.27;;;3.10;;
75616;SDS011;64200;55.426;37.758;2024-03-08T18:47:35;10.03;;;3.53;;
75616;SDS011;64200;55.426;37.758;2024-03-08T18:52:36;6.45;;;3.10;;
75616;SDS011;64200;55.426;37.758;2024-03-08T18:57:37;8.73;;;3.75;;
75616;SDS011;64200;55.426;37.758;2024-03-08T19:02:42;5.07;;;3.00;;
75616;SDS011;64200;55.426;37.758;2024-03-08T19:07:43;6.82;;;2.95;;
75616;SDS011;64200;55.426;37.758;2024-03-08T19:12:48;6.60;;;3.17;;
75616;SDS011;64200;55.426;37.758;2024-03-08T19:17:52;7.90;;;3.35;;
75616;SDS011;64200;55.426;37.758;2024-03-08T19:22:54;7.15;;;3.60;;
75616;SDS011;64200;55.426;37.758;2024-03-08T19:28:01;8.77;;;3.67;;
75616;SDS011;64200;55.426;37.758;2024-03-08T19:38:11;8.18;;;3.80;;
75616;SDS011;64200;55.426;37.758;2024-03-08T19:43:12;8.65;;;3.75;;
75616;SDS011;64200;55.426;37.758;2024-03-08T19:48:15;7.40;;;2.90;;
75616;SDS011;64200;55.426;37.758;2024-03-08T19:53:20;5.13;;;2.63;;
75616;SDS011;64200;55.426;37.758;2024-03-08T19:58:22;9.77;;;3.90;;
75616;SDS011;64200;55.426;37.758;2024-03-08T20:03:23;7.10;;;3.50;;
75616;SDS011;64200;55.426;37.758;2024-03-08T20:08:24;11.35;;;4.50;;
75616;SDS011;64200;55.426;37.758;2024-03-08T20:13:28;9.25;;;3.95;;
75616;SDS011;64200;55.426;37.758;2024-03-08T20:18:28;9.40;;;3.85;;
75616;SDS011;64200;55.426;37.758;2024-03-08T20:23:29;7.97;;;3.67;;
75616;SDS011;64200;55.426;37.758;2024-03-08T20:28:30;8.30;;;3.63;;
75616;SDS011;64200;55.426;37.758;2024-03-08T20:33:32;7.95;;;3.60;;
75616;SDS011;64200;55.426;37.758;2024-03-08T20:38:32;6.33;;;3.57;;
75616;SDS011;64200;55.426;37.758;2024-03-08T20:43:33;9.00;;;4.10;;
75616;SDS011;64200;55.426;37.758;2024-03-08T20:48:37;8.48;;;3.47;;
75616;SDS011;64200;55.426;37.758;2024-03-08T20:53:40;6.47;;;3.42;;
75616;SDS011;64200;55.426;37.758;2024-03-08T20:58:40;9.40;;;3.83;;
75616;SDS011;64200;55.426;37.758;2024-03-08T21:03:41;9.48;;;3.47;;
75616;SDS011;64200;55.426;37.758;2024-03-08T21:08:41;5.60;;;2.57;;
75616;SDS011;64200;55.426;37.758;2024-03-08T21:13:42;6.65;;;2.85;;
75616;SDS011;64200;55.426;37.758;2024-03-08T21:18:43;7.45;;;3.08;;
75616;SDS011;64200;55.426;37.758;2024-03-08T21:23:43;3.73;;;1.83;;
75616;SDS011;64200;55.426;37.758;2024-03-08T21:28:43;14.07;;;4.03;;
75616;SDS011;64200;55.426;37.758;2024-03-08T21:33:44;2.70;;;0.93;;
75616;SDS011;64200;55.426;37.758;2024-03-08T21:38:44;0.98;;;0.60;;
75616;SDS011;64200;55.426;37.758;2024-03-08T21:43:45;2.05;;;0.77;;
75616;SDS011;64200;55.426;37.758;2024-03-08T21:48:45;1.33;;;0.40;;
75616;SDS011;64200;55.426;37.758;2024-03-08T21:53:47;0.93;;;0.40;;
75616;SDS011;64200;55.426;37.758;2024-03-08T21:58:47;1.17;;;0.57;;
75616;SDS011;64200;55.426;37.758;2024-03-08T22:03:48;0.77;;;0.40;;
75616;SDS011;64200;55.426;37.758;2024-03-08T22:08:49;1.92;;;0.85;;
75616;SDS011;64200;55.426;37.758;2024-03-08T22:13:50;0.88;;;0.60;;
75616;SDS011;64200;55.426;37.758;2024-03-08T22:18:50;0.40;;;0.30;;
75616;SDS011;64200;55.426;37.758;2024-03-08T22:23:53;1.08;;;0.50;;
75616;SDS011;64200;55.426;37.758;2024-03-08T22:28:54;2.50;;;0.80;;
75616;SDS011;64200;55.426;37.758;2024-03-08T22:33:55;1.38;;;0.55;;
75616;SDS011;64200;55.426;37.758;2024-03-08T22:38:56;1.42;;;0.50;;
75616;SDS011;64200;55.426;37.758;2024-03-08T22:43:57;0.98;;;0.60;;
75616;SDS011;64200;55.426;37.758;2024-03-08T22:48:58;1.40;;;0.43;;
75616;SDS011;64200;55.426;37.758;2024-03-08T22:53:58;0.82;;;0.60;;
75616;SDS011;64200;55.426;37.758;2024-03-08T22:59:00;1.83;;;0.57;;
75616;SDS011;64200;55.426;37.758;2024-03-08T23:04:02;0.63;;;0.40;;
75616;SDS011;64200;55.426;37.758;2024-03-08T23:09:03;3.80;;;0.70;;
75616;SDS011;64200;55.426;37.758;2024-03-08T23:14:04;1.65;;;0.50;;
75616;SDS011;64200;55.426;37.758;2024-03-08T23:19:06;0.65;;;0.40;;
75616;SDS011;64200;55.426;37.758;2024-03-08T23:24:07;0.90;;;0.55;;
75616;SDS011;64200;55.426;37.758;2024-03-08T23:29:08;0.47;;;0.30;;
75616;SDS011;64200;55.426;37.758;2024-03-08T23:34:08;2.70;;;1.00;;
75616;SDS011;64200;55.426;37.758;2024-03-08T23:39:09;1.33;;;0.67;;
75616;SDS011;64200;55.426;37.758;2024-03-08T23:44:11;1.10;;;0.60;;
75616;SDS011;64200;55.426;37.758;2024-03-08T23:49:13;1.60;;;0.73;;
75616;SDS011;64200;55.426;37.758;2024-03-08T23:54:17;1.17;;;0.85;;
75616;SDS011;64200;55.426;37.758;2024-03-08T23:59:22;2.28;;;0.60;;
